Time;durP1;ratioP1;P1;durP2;ratioP2;P2;SDS_P1;SDS_P2;PMS_P1;PMS_P2;Temp;Humidity;BMP_temperature;BMP_pressure;BME280_temperature;BME280_humidity;BME280_pressure;Samples;Min_cycle;Max_cycle;Signal;HPM_P1;HPM_P2
2023/04/14 00:01:35;;;;;;;;;;;6.70;99.90;;;;;;5034160;28;20354;-63
2023/04/14 00:04:00;;;;;;;;;;;6.60;99.90;;;;;;5034119;28;19905;-64
2023/04/14 00:06:26;;;;;;;;;;;6.60;99.90;;;;;;5034097;28;19905;-63
2023/04/14 00:08:52;;;;;;;;;;;6.60;99.90;;;;;;5034493;28;19913;-65
2023/04/14 00:11:17;;;;;;;;;;;6.70;99.90;;;;;;5034852;28;19913;-65
2023/04/14 00:13:43;;;;;;;;;;;6.70;99.90;;;;;;5034546;28;19952;-64
2023/04/14 00:16:11;;;;;;;;;;;6.80;99.90;;;;;;5016856;28;19905;-64
2023/04/14 00:18:36;;;;;;;;;;;6.90;99.90;;;;;;5033994;28;19905;-64
2023/04/14 00:21:02;;;;;;;;;;;6.80;99.90;;;;;;5034167;28;19905;-64
2023/04/14 00:23:27;;;;;;;;;;;6.70;99.90;;;;;;5034357;28;19927;-64
2023/04/14 00:25:53;;;;;;;;;;;6.80;99.90;;;;;;5033884;28;19916;-64
2023/04/14 00:28:18;;;;;;;;;;;6.80;99.90;;;;;;5034144;28;19984;-64
2023/04/14 00:30:44;;;;;;;;;;;6.80;99.90;;;;;;5034716;28;19905;-64
2023/04/14 00:33:09;;;;;;;;;;;6.90;99.90;;;;;;5034868;28;19913;-63
2023/04/14 00:35:35;;;;;;;;;;;7.00;99.90;;;;;;5034076;28;19947;-65
2023/04/14 00:38:00;;;;;;;;;;;7.00;99.90;;;;;;5034085;28;19992;-64
2023/04/14 00:40:27;;;;;;;;;;;7.00;99.90;;;;;;5016142;28;19906;-64
2023/04/14 00:42:53;;;;;;;;;;;6.90;99.90;;;;;;5033827;28;19908;-65
2023/04/14 00:45:18;;;;;;;;;;;6.90;99.90;;;;;;5034499;28;19912;-65
2023/04/14 00:47:49;;;;;;;;;;;7.10;99.90;;;;;;5033946;28;19905;-65
2023/04/14 00:50:18;;;;;;;;;;;7.00;99.90;;;;;;5033710;28;19912;-63
2023/04/14 00:52:45;;;;;;;;;;;6.80;99.90;;;;;;5033738;28;19913;-65
2023/04/14 00:55:11;;;;;;;;;;;6.70;99.90;;;;;;5033824;28;19967;-64
2023/04/14 00:57:37;;;;;;;;;;;6.80;99.90;;;;;;5034235;28;20353;-62
2023/04/14 01:00:05;;;;;;;;;;;6.70;99.90;;;;;;5034750;28;19909;-64
2023/04/14 01:02:31;;;;;;;;;;;6.60;99.90;;;;;;5035765;28;19912;-64
2023/04/14 01:04:56;;;;;;;;;;;6.80;99.90;;;;;;5036172;28;19905;-65
2023/04/14 01:07:23;;;;;;;;;;;6.70;99.90;;;;;;5034318;28;19905;-65
2023/04/14 01:09:49;;;;;;;;;;;6.70;99.90;;;;;;5015687;28;19936;-64
2023/04/14 01:12:33;;;;;;;;;;;6.90;99.90;;;;;;5033405;28;19909;-64
2023/04/14 01:15:07;;;;;;;;;;;6.90;99.90;;;;;;5033620;28;19909;-65
2023/04/14 01:17:38;;;;;;;;;;;6.80;99.90;;;;;;5033134;28;19912;-64
2023/04/14 01:20:21;;;;;;;;;;;6.70;99.90;;;;;;5015860;28;19916;-64
2023/04/14 01:22:49;;;;;;;;;;;6.60;99.90;;;;;;5035706;28;20312;-63
2023/04/14 01:25:34;;;;;;;;;;;6.60;99.90;;;;;;5037042;28;19990;-65
2023/04/14 01:28:20;;;;;;;;;;;6.70;99.90;;;;;;4996630;28;20277;-64
2023/04/14 01:30:58;;;;;;;;;;;6.70;99.90;;;;;;5019261;28;19904;-65
2023/04/14 01:33:25;;;;;;;;;;;6.80;99.90;;;;;;5036966;28;19912;-65
2023/04/14 01:35:51;;;;;;;;;;;6.80;99.90;;;;;;5037178;28;20039;-64
2023/04/14 01:38:24;;;;;;;;;;;6.90;99.90;;;;;;5019036;28;20380;-63
2023/04/14 01:40:51;;;;;;;;;;;6.80;99.90;;;;;;5036624;28;19949;-63
2023/04/14 01:43:21;;;;;;;;;;;6.80;99.90;;;;;;5036778;28;19912;-63
2023/04/14 01:45:49;;;;;;;;;;;6.90;99.90;;;;;;5018935;28;19948;-65
2023/04/14 01:48:15;;;;;;;;;;;6.90;99.90;;;;;;5037158;28;19905;-64
2023/04/14 01:50:40;;;;;;;;;;;6.80;99.90;;;;;;5036787;28;19928;-64
2023/04/14 01:53:07;;;;;;;;;;;6.80;99.90;;;;;;5036639;28;20349;-65
2023/04/14 01:55:34;;;;;;;;;;;6.80;99.90;;;;;;5036186;28;19955;-65
2023/04/14 01:58:00;;;;;;;;;;;6.70;99.90;;;;;;5037495;28;19912;-66
2023/04/14 02:00:25;;;;;;;;;;;6.70;99.90;;;;;;5038154;28;19996;-63
2023/04/14 02:02:52;;;;;;;;;;;6.70;99.90;;;;;;5036937;28;19905;-66
2023/04/14 02:05:18;;;;;;;;;;;6.60;99.90;;;;;;5036594;28;19905;-65
2023/04/14 02:07:45;;;;;;;;;;;6.50;99.90;;;;;;5036261;28;20408;-64
2023/04/14 02:10:12;;;;;;;;;;;6.60;99.90;;;;;;5035922;28;19954;-64
2023/04/14 02:12:39;;;;;;;;;;;6.60;99.90;;;;;;5036253;28;20308;-65
2023/04/14 02:15:05;;;;;;;;;;;6.50;99.90;;;;;;5066467;22;19928;-66
2023/04/14 02:17:31;;;;;;;;;;;6.50;99.90;;;;;;5036864;28;19905;-66
2023/04/14 02:19:56;;;;;;;;;;;6.50;99.90;;;;;;5036652;28;19959;-66
2023/04/14 02:22:22;;;;;;;;;;;6.40;99.90;;;;;;5018439;28;19955;-66
2023/04/14 02:24:47;;;;;;;;;;;6.30;99.90;;;;;;5035874;28;19939;-66
2023/04/14 02:27:15;;;;;;;;;;;6.30;99.90;;;;;;5035800;28;20007;-66
2023/04/14 02:29:43;;;;;;;;;;;6.30;99.90;;;;;;5017769;28;19907;-66
2023/04/14 02:32:12;;;;;;;;;;;6.20;99.90;;;;;;5035920;28;19999;-66
2023/04/14 02:34:44;;;;;;;;;;;6.20;99.90;;;;;;5016659;28;20298;-66
2023/04/14 02:37:14;;;;;;;;;;;6.20;99.90;;;;;;5035586;28;19912;-66
2023/04/14 02:39:42;;;;;;;;;;;6.10;99.90;;;;;;5035546;28;19960;-66
2023/04/14 02:42:11;;;;;;;;;;;6.10;99.90;;;;;;5035956;28;19905;-66
2023/04/14 02:44:38;;;;;;;;;;;6.10;99.90;;;;;;5035231;28;19905;-66
2023/04/14 02:47:06;;;;;;;;;;;6.00;99.90;;;;;;5035554;28;20007;-66
2023/04/14 02:49:42;;;;;;;;;;;6.10;99.90;;;;;;5035694;28;20293;-66
2023/04/14 02:52:12;;;;;;;;;;;6.10;99.90;;;;;;5035595;28;20090;-66
2023/04/14 02:54:40;;;;;;;;;;;6.10;99.90;;;;;;5017491;28;20019;-66
2023/04/14 02:57:06;;;;;;;;;;;6.00;99.90;;;;;;5035402;28;19905;-66
2023/04/14 02:59:31;;;;;;;;;;;6.00;99.90;;;;;;5018017;28;20051;-65
2023/04/14 03:02:03;;;;;;;;;;;6.00;99.90;;;;;;5017763;28;19905;-66
2023/04/14 03:04:35;;;;;;;;;;;6.00;99.90;;;;;;5017601;28;19909;-66
2023/04/14 03:07:01;;;;;;;;;;;6.10;99.90;;;;;;5035442;28;19905;-66
2023/04/14 03:09:28;;;;;;;;;;;6.10;99.90;;;;;;5017436;28;19917;-66
2023/04/14 03:11:54;;;;;;;;;;;6.10;99.90;;;;;;5017800;28;20016;-66
2023/04/14 03:14:20;;;;;;;;;;;6.00;99.90;;;;;;5034863;28;19913;-65
2023/04/14 03:16:45;;;;;;;;;;;6.10;99.90;;;;;;5035277;28;20377;-65
2023/04/14 03:19:12;;;;;;;;;;;6.10;99.90;;;;;;5035465;28;19905;-65
2023/04/14 03:21:38;;;;;;;;;;;6.10;99.90;;;;;;5035252;28;20004;-65
2023/04/14 03:24:04;;;;;;;;;;;6.10;99.90;;;;;;5035330;28;20337;-65
2023/04/14 03:26:30;;;;;;;;;;;6.20;99.90;;;;;;5017743;28;19905;-66
2023/04/14 03:28:57;;;;;;;;;;;6.10;99.90;;;;;;5035008;28;20380;-65
2023/04/14 03:31:28;;;;;;;;;;;6.10;99.90;;;;;;5017103;28;19904;-65
2023/04/14 03:33:56;;;;;;;;;;;6.20;99.90;;;;;;5034980;28;19905;-65
2023/04/14 03:36:21;;;;;;;;;;;6.20;99.90;;;;;;5016886;28;20353;-65
2023/04/14 03:38:48;;;;;;;;;;;6.30;99.90;;;;;;5034271;28;19909;-66
2023/04/14 03:41:16;;;;;;;;;;;6.20;99.90;;;;;;5018010;28;19951;-66
2023/04/14 03:43:43;;;;;;;;;;;6.10;99.90;;;;;;5018153;28;20285;-66
2023/04/14 03:46:09;;;;;;;;;;;6.20;99.90;;;;;;5035712;28;19909;-66
2023/04/14 03:48:41;;;;;;;;;;;6.20;99.90;;;;;;5016791;28;19905;-66
2023/04/14 03:51:08;;;;;;;;;;;6.10;99.90;;;;;;5034451;28;19912;-66
2023/04/14 03:53:34;;;;;;;;;;;6.10;99.90;;;;;;5034386;28;19916;-66
2023/04/14 03:56:00;;;;;;;;;;;6.10;99.90;;;;;;5034163;28;19905;-66
2023/04/14 03:58:28;;;;;;;;;;;6.10;99.90;;;;;;5034327;28;19905;-66
2023/04/14 04:00:54;;;;;;;;;;;6.10;99.90;;;;;;5034520;28;19912;-66
2023/04/14 04:03:20;;;;;;;;;;;6.00;99.90;;;;;;5035452;28;19905;-66
2023/04/14 04:05:46;;;;;;;;;;;6.00;99.90;;;;;;5034932;28;20284;-66
2023/04/14 04:08:11;;;;;;;;;;;6.00;99.90;;;;;;5034543;28;19905;-66
2023/04/14 04:10:37;;;;;;;;;;;6.00;99.90;;;;;;5016789;28;19912;-66
2023/04/14 04:13:07;;;;;;;;;;;6.00;99.90;;;;;;5016955;28;19909;-66
2023/04/14 04:15:33;;;;;;;;;;;6.00;99.90;;;;;;5034068;28;19913;-66
2023/04/14 04:17:59;;;;;;;;;;;6.00;99.90;;;;;;5034419;28;19959;-66
2023/04/14 04:20:25;;;;;;;;;;;5.90;99.90;;;;;;5016135;28;19971;-66
2023/04/14 04:22:51;;;;;;;;;;;5.90;99.90;;;;;;5034281;28;20345;-66
2023/04/14 04:25:17;;;;;;;;;;;5.80;99.90;;;;;;5016520;28;19908;-65
2023/04/14 04:27:42;;;;;;;;;;;5.70;99.90;;;;;;5034310;28;19906;-66
2023/04/14 04:30:08;;;;;;;;;;;5.60;99.90;;;;;;5033893;28;19916;-66
2023/04/14 04:32:37;;;;;;;;;;;5.60;99.90;;;;;;5034390;28;19938;-66
2023/04/14 04:35:04;;;;;;;;;;;5.70;99.90;;;;;;5033834;28;19987;-65
2023/04/14 04:37:30;;;;;;;;;;;5.60;99.90;;;;;;5034050;28;19905;-67
2023/04/14 04:39:57;;;;;;;;;;;5.50;99.90;;;;;;5016310;28;19912;-67
2023/04/14 04:42:22;;;;;;;;;;;5.50;99.90;;;;;;5011629;28;20289;-65
2023/04/14 04:44:48;;;;;;;;;;;5.40;99.90;;;;;;5019353;28;19913;-66
2023/04/14 04:47:13;;;;;;;;;;;5.30;99.90;;;;;;5032881;28;19948;-66
2023/04/14 04:49:39;;;;;;;;;;;5.30;99.90;;;;;;5032496;28;19913;-66
2023/04/14 04:52:04;;;;;;;;;;;5.40;99.90;;;;;;5027152;28;20000;-66
2023/04/14 04:54:30;;;;;;;;;;;5.50;99.90;;;;;;5014009;28;19936;-65
2023/04/14 04:56:57;;;;;;;;;;;5.40;99.90;;;;;;5017027;28;19958;-65
2023/04/14 04:59:23;;;;;;;;;;;5.30;99.90;;;;;;5034772;28;19905;-66
2023/04/14 05:01:48;;;;;;;;;;;5.40;99.90;;;;;;5034073;28;19909;-65
2023/04/14 05:04:14;;;;;;;;;;;5.40;99.90;;;;;;5016691;28;20389;-66
2023/04/14 05:06:39;;;;;;;;;;;5.40;99.90;;;;;;5018393;28;19912;-66
2023/04/14 05:09:05;;;;;;;;;;;5.30;99.90;;;;;;5018855;28;19905;-65
2023/04/14 05:11:31;;;;;;;;;;;5.20;99.90;;;;;;5018240;28;20277;-65
2023/04/14 05:13:57;;;;;;;;;;;5.20;99.90;;;;;;5038341;28;19979;-64
2023/04/14 05:16:23;;;;;;;;;;;5.20;99.90;;;;;;5037600;28;20366;-66
2023/04/14 05:18:52;;;;;;;;;;;5.10;99.90;;;;;;5038358;28;19956;-66
2023/04/14 05:21:20;;;;;;;;;;;5.20;99.90;;;;;;5038847;28;19937;-66
2023/04/14 05:23:46;;;;;;;;;;;5.10;99.90;;;;;;5038523;28;19993;-66
2023/04/14 05:26:12;;;;;;;;;;;5.20;99.90;;;;;;5038098;28;20369;-65
2023/04/14 05:28:38;;;;;;;;;;;5.30;99.90;;;;;;5020232;28;19913;-65
2023/04/14 05:31:04;;;;;;;;;;;5.30;99.90;;;;;;5037635;28;20358;-67
2023/04/14 05:33:29;;;;;;;;;;;5.30;99.90;;;;;;5019917;28;19909;-66
2023/04/14 05:35:55;;;;;;;;;;;5.30;99.90;;;;;;5037754;28;19905;-66
2023/04/14 05:38:20;;;;;;;;;;;5.30;99.90;;;;;;5037726;28;20018;-65
2023/04/14 05:40:46;;;;;;;;;;;5.40;99.90;;;;;;5020044;28;19905;-68
2023/04/14 05:43:13;;;;;;;;;;;5.40;99.90;;;;;;5037575;28;19978;-67
2023/04/14 05:45:38;;;;;;;;;;;5.40;99.90;;;;;;5018721;28;19909;-65
2023/04/14 05:48:04;;;;;;;;;;;5.50;99.90;;;;;;5036558;28;19911;-65
2023/04/14 05:50:29;;;;;;;;;;;5.50;99.90;;;;;;5036935;28;19909;-65
2023/04/14 05:52:55;;;;;;;;;;;5.70;99.90;;;;;;5018040;28;19932;-65
2023/04/14 05:55:20;;;;;;;;;;;5.70;99.90;;;;;;5036651;28;19996;-65
2023/04/14 05:57:46;;;;;;;;;;;5.70;99.90;;;;;;5036444;28;20407;-62
2023/04/14 06:00:12;;;;;;;;;;;5.70;99.90;;;;;;5018735;28;19908;-63
2023/04/14 06:02:37;;;;;;;;;;;5.70;99.90;;;;;;5036389;28;19955;-63
2023/04/14 06:05:05;;;;;;;;;;;5.70;99.90;;;;;;5018775;28;19959;-63
2023/04/14 06:07:30;;;;;;;;;;;5.70;99.90;;;;;;5018905;28;19936;-62
2023/04/14 06:09:56;;;;;;;;;;;5.80;99.90;;;;;;5019654;28;19905;-66
2023/04/14 06:12:21;;;;;;;;;;;5.80;99.90;;;;;;5037497;28;19947;-65
2023/04/14 06:14:47;;;;;;;;;;;5.80;99.90;;;;;;5018869;28;19923;-64
2023/04/14 06:17:12;;;;;;;;;;;5.80;99.90;;;;;;5037501;28;19905;-64
2023/04/14 06:19:38;;;;;;;;;;;5.90;99.90;;;;;;5036864;28;19959;-64
2023/04/14 06:22:04;;;;;;;;;;;5.90;99.90;;;;;;5037494;28;19912;-65
2023/04/14 06:24:32;;;;;;;;;;;6.00;99.90;;;;;;5015595;28;19912;-65
2023/04/14 06:26:57;;;;;;;;;;;6.10;99.90;;;;;;5031415;28;19909;-65
2023/04/14 06:29:23;;;;;;;;;;;6.10;99.90;;;;;;5015105;28;19959;-65
2023/04/14 06:31:50;;;;;;;;;;;6.20;99.90;;;;;;5034529;28;19913;-65
2023/04/14 06:34:16;;;;;;;;;;;6.30;99.90;;;;;;5013797;28;19909;-65
2023/04/14 06:36:42;;;;;;;;;;;6.30;99.90;;;;;;5006884;28;19964;-66
2023/04/14 06:39:07;;;;;;;;;;;6.40;99.90;;;;;;5013408;28;19909;-67
2023/04/14 06:41:32;;;;;;;;;;;6.50;99.90;;;;;;5003944;28;19905;-65
2023/04/14 06:43:58;;;;;;;;;;;6.50;99.90;;;;;;5012354;28;19913;-64
2023/04/14 06:46:23;;;;;;;;;;;6.60;99.90;;;;;;5026577;28;19905;-65
2023/04/14 06:48:49;;;;;;;;;;;6.70;99.90;;;;;;5027317;28;19905;-64
2023/04/14 06:51:14;;;;;;;;;;;6.70;99.90;;;;;;5027155;28;19905;-66
2023/04/14 06:53:40;;;;;;;;;;;6.80;99.90;;;;;;5027406;28;19913;-66
2023/04/14 06:56:06;;;;;;;;;;;6.90;99.90;;;;;;5031801;28;20349;-66
2023/04/14 06:58:32;;;;;;;;;;;6.90;99.90;;;;;;5028978;28;19910;-66
2023/04/14 07:00:58;;;;;;;;;;;7.10;99.90;;;;;;5013375;28;20003;-65
2023/04/14 07:03:24;;;;;;;;;;;7.10;99.90;;;;;;5029964;28;19949;-67
2023/04/14 07:05:49;;;;;;;;;;;7.10;99.90;;;;;;5017834;28;19905;-68
2023/04/14 07:08:15;;;;;;;;;;;7.30;99.90;;;;;;5035783;28;19905;-68
2023/04/14 07:10:40;;;;;;;;;;;7.40;99.90;;;;;;5018337;28;19905;-68
2023/04/14 07:13:06;;;;;;;;;;;7.50;99.90;;;;;;5018056;28;20250;-68
2023/04/14 07:15:31;;;;;;;;;;;7.50;99.90;;;;;;5035548;28;19920;-68
2023/04/14 07:17:58;;;;;;;;;;;7.60;99.90;;;;;;5035227;28;19905;-69
2023/04/14 07:20:24;;;;;;;;;;;7.60;99.90;;;;;;5016535;28;20346;-69
2023/04/14 07:22:49;;;;;;;;;;;7.70;99.90;;;;;;5035392;28;19959;-66
2023/04/14 07:25:15;;;;;;;;;;;7.70;99.90;;;;;;5034928;28;19955;-65
2023/04/14 07:27:40;;;;;;;;;;;7.80;99.90;;;;;;5035277;28;19905;-67
2023/04/14 07:30:06;;;;;;;;;;;7.80;99.90;;;;;;5016854;28;19912;-65
2023/04/14 07:32:32;;;;;;;;;;;8.00;99.90;;;;;;5035080;28;19951;-66
2023/04/14 07:34:58;;;;;;;;;;;8.00;99.90;;;;;;5017382;28;20451;-66
2023/04/14 07:37:23;;;;;;;;;;;8.10;99.90;;;;;;5035197;28;20000;-65
2023/04/14 07:39:49;;;;;;;;;;;8.20;99.90;;;;;;5034755;28;20366;-66
2023/04/14 07:42:14;;;;;;;;;;;8.30;99.90;;;;;;5034684;28;19912;-66
2023/04/14 07:44:40;;;;;;;;;;;8.40;99.90;;;;;;5034382;28;19905;-66
2023/04/14 07:47:05;;;;;;;;;;;8.40;99.90;;;;;;5034240;28;20277;-68
2023/04/14 07:49:31;;;;;;;;;;;8.60;99.90;;;;;;5034672;28;19992;-64
2023/04/14 07:51:56;;;;;;;;;;;8.70;99.90;;;;;;5034290;28;19909;-65
2023/04/14 07:54:22;;;;;;;;;;;8.80;99.90;;;;;;5034238;28;19905;-64
2023/04/14 07:56:48;;;;;;;;;;;8.80;99.90;;;;;;5034396;28;19909;-63
2023/04/14 07:59:13;;;;;;;;;;;8.90;99.90;;;;;;5035068;28;20118;-65
2023/04/14 08:01:39;;;;;;;;;;;9.00;99.90;;;;;;5034999;28;19905;-64
2023/04/14 08:04:04;;;;;;;;;;;9.10;99.90;;;;;;5034562;28;19906;-63
2023/04/14 08:06:30;;;;;;;;;;;9.30;99.90;;;;;;5034698;28;19924;-63
2023/04/14 08:08:55;;;;;;;;;;;9.30;99.90;;;;;;5016719;28;19987;-65
2023/04/14 08:11:21;;;;;;;;;;;9.30;99.90;;;;;;5034288;28;19905;-67
2023/04/14 08:13:48;;;;;;;;;;;9.50;99.90;;;;;;5015876;28;19920;-65
2023/04/14 08:16:14;;;;;;;;;;;9.60;99.90;;;;;;5074424;22;19931;-64
2023/04/14 08:18:40;;;;;;;;;;;9.60;99.90;;;;;;5036672;28;19908;-64
2023/04/14 08:21:06;;;;;;;;;;;9.70;99.90;;;;;;5055094;28;19909;-62
2023/04/14 08:23:31;;;;;;;;;;;9.80;99.90;;;;;;5054906;28;20365;-65
2023/04/14 08:25:57;;;;;;;;;;;10.00;99.90;;;;;;5054770;28;19927;-62
2023/04/14 08:28:22;;;;;;;;;;;10.20;99.90;;;;;;5054811;28;19904;-63
2023/04/14 08:30:48;;;;;;;;;;;11.20;99.90;;;;;;5053732;28;20006;-63
2023/04/14 08:33:14;;;;;;;;;;;13.50;99.90;;;;;;5035611;28;20003;-64
2023/04/14 08:35:39;;;;;;;;;;;16.60;97.40;;;;;;5054131;28;19911;-63
2023/04/14 08:38:05;;;;;;;;;;;19.10;92.00;;;;;;5054356;28;20288;-65
2023/04/14 08:40:36;;;;;;;;;;;20.00;87.70;;;;;;5054102;28;20367;-65
2023/04/14 08:43:01;;;;;;;;;;;22.00;81.30;;;;;;5035902;28;19904;-64
2023/04/14 08:45:27;;;;;;;;;;;23.70;73.30;;;;;;5054046;28;20004;-64
2023/04/14 08:47:54;;;;;;;;;;;24.70;70.50;;;;;;5045089;28;19909;-64
2023/04/14 08:50:21;;;;;;;;;;;25.40;66.30;;;;;;5022925;28;19906;-64
2023/04/14 08:52:49;;;;;;;;;;;26.70;63.20;;;;;;5032442;28;20270;-64
2023/04/14 08:55:15;;;;;;;;;;;27.20;60.60;;;;;;5034477;28;19960;-66
2023/04/14 08:57:42;;;;;;;;;;;28.10;58.10;;;;;;5034588;28;19913;-64
2023/04/14 09:00:08;;;;;;;;;;;28.20;56.20;;;;;;5033479;28;19939;-63
2023/04/14 09:02:34;;;;;;;;;;;28.20;56.20;;;;;;5033529;28;19928;-63
2023/04/14 09:05:00;;;;;;;;;;;28.40;55.50;;;;;;5034253;28;20278;-63
2023/04/14 09:07:25;;;;;;;;;;;28.90;54.80;;;;;;5034034;28;20338;-64
2023/04/14 09:09:51;;;;;;;;;;;29.90;52.50;;;;;;5033409;28;20262;-64
2023/04/14 09:12:19;;;;;;;;;;;30.30;51.70;;;;;;5015516;28;19940;-66
2023/04/14 09:14:45;;;;;;;;;;;30.50;51.00;;;;;;5031423;28;20015;-67
2023/04/14 09:17:11;;;;;;;;;;;30.60;50.40;;;;;;5037939;28;19949;-65
2023/04/14 09:19:36;;;;;;;;;;;31.10;49.80;;;;;;5024501;28;19939;-65
2023/04/14 09:22:02;;;;;;;;;;;31.60;50.60;;;;;;5027195;28;19996;-65
2023/04/14 09:24:28;;;;;;;;;;;31.90;50.20;;;;;;5012354;28;19951;-65
2023/04/14 09:26:54;;;;;;;;;;;31.90;48.10;;;;;;5013842;28;19996;-66
2023/04/14 09:29:19;;;;;;;;;;;31.80;48.00;;;;;;5011639;28;20008;-66
2023/04/14 09:31:45;;;;;;;;;;;31.80;47.60;;;;;;5031874;28;19916;-66
2023/04/14 09:34:15;;;;;;;;;;;31.60;47.50;;;;;;5027061;28;19912;-66
2023/04/14 09:36:41;;;;;;;;;;;31.10;47.70;;;;;;5026439;28;19909;-65
2023/04/14 09:39:16;;;;;;;;;;;31.10;48.00;;;;;;5028614;28;19916;-65
2023/04/14 09:41:46;;;;;;;;;;;30.70;47.10;;;;;;5021922;28;19909;-65
2023/04/14 09:44:11;;;;;;;;;;;29.00;48.70;;;;;;5025061;28;19905;-65
2023/04/14 09:46:55;;;;;;;;;;;30.00;49.00;;;;;;5032585;28;19916;-66
2023/04/14 09:49:21;;;;;;;;;;;29.50;48.60;;;;;;5016026;28;20266;-64
2023/04/14 09:51:47;;;;;;;;;;;29.80;48.70;;;;;;5019499;28;19916;-64
2023/04/14 09:54:20;;;;;;;;;;;30.80;47.80;;;;;;5025388;28;19905;-65
2023/04/14 09:56:46;;;;;;;;;;;31.80;48.60;;;;;;5017463;28;20294;-65
2023/04/14 09:59:11;;;;;;;;;;;31.00;47.10;;;;;;5024658;28;19913;-66
2023/04/14 10:01:37;;;;;;;;;;;30.70;47.30;;;;;;5029934;28;20284;-65
2023/04/14 10:04:02;;;;;;;;;;;29.60;47.30;;;;;;5029812;28;19955;-65
2023/04/14 10:06:30;;;;;;;;;;;29.80;47.30;;;;;;5009694;28;19917;-64
2023/04/14 10:08:55;;;;;;;;;;;30.30;48.10;;;;;;5016516;28;19913;-65
2023/04/14 10:11:26;;;;;;;;;;;30.10;46.30;;;;;;5031028;28;19910;-66
2023/04/14 10:13:55;;;;;;;;;;;28.40;48.20;;;;;;5026898;28;19909;-65
2023/04/14 10:16:21;;;;;;;;;;;29.30;48.10;;;;;;5043660;28;19967;-65
2023/04/14 10:18:47;;;;;;;;;;;29.90;47.20;;;;;;5034621;28;19913;-66
2023/04/14 10:21:13;;;;;;;;;;;29.60;46.70;;;;;;5037812;28;19912;-65
2023/04/14 10:23:40;;;;;;;;;;;28.00;48.50;;;;;;5035771;28;19912;-65
2023/04/14 10:26:06;;;;;;;;;;;27.80;47.30;;;;;;5018203;28;19909;-64
2023/04/14 10:28:33;;;;;;;;;;;28.00;47.80;;;;;;5018581;28;19948;-65
2023/04/14 10:31:00;;;;;;;;;;;27.30;47.30;;;;;;5035510;28;19916;-65
2023/04/14 10:33:26;;;;;;;;;;;27.00;47.70;;;;;;5035892;28;20358;-66
2023/04/14 10:35:57;;;;;;;;;;;26.30;49.10;;;;;;5036230;28;19996;-64
2023/04/14 10:38:35;;;;;;;;;;;28.00;48.30;;;;;;5025743;28;19910;-66
2023/04/14 10:41:03;;;;;;;;;;;28.20;46.60;;;;;;5020738;28;20004;-67
2023/04/14 10:43:29;;;;;;;;;;;28.60;47.90;;;;;;5008057;28;20012;-63
2023/04/14 10:45:54;;;;;;;;;;;28.60;47.90;;;;;;5028601;28;19917;-62
2023/04/14 10:48:23;;;;;;;;;;;29.00;47.50;;;;;;5021264;28;19905;-63
2023/04/14 10:50:49;;;;;;;;;;;29.80;46.90;;;;;;5030245;28;20425;-62
2023/04/14 10:53:14;;;;;;;;;;;29.00;46.70;;;;;;5021445;28;20055;-63
2023/04/14 10:55:45;;;;;;;;;;;27.70;46.90;;;;;;5015768;28;20016;-65
2023/04/14 10:58:16;;;;;;;;;;;25.50;49.20;;;;;;5028272;28;19909;-65
2023/04/14 11:00:43;;;;;;;;;;;25.40;49.60;;;;;;5016938;28;20216;-65
2023/04/14 11:03:13;;;;;;;;;;;26.20;48.70;;;;;;5015264;28;20000;-64
2023/04/14 11:05:42;;;;;;;;;;;26.40;48.70;;;;;;5015360;28;20351;-64
2023/04/14 11:08:15;;;;;;;;;;;25.90;49.10;;;;;;5015786;28;20337;-64
2023/04/14 11:10:46;;;;;;;;;;;25.40;49.20;;;;;;5012414;28;19909;-64
2023/04/14 11:13:11;;;;;;;;;;;24.10;49.90;;;;;;5017258;28;19909;-66
2023/04/14 11:15:44;;;;;;;;;;;22.00;52.90;;;;;;5046632;28;20000;-67
2023/04/14 11:18:12;;;;;;;;;;;20.60;54.90;;;;;;5036913;28;19935;-66
2023/04/14 11:20:39;;;;;;;;;;;19.50;56.20;;;;;;5054789;28;19905;-66
2023/04/14 11:23:05;;;;;;;;;;;18.70;57.30;;;;;;5055984;28;20304;-66
2023/04/14 11:25:30;;;;;;;;;;;17.70;59.70;;;;;;5056055;28;19963;-67
2023/04/14 11:28:00;;;;;;;;;;;17.30;59.80;;;;;;5037115;28;19905;-66
2023/04/14 11:30:26;;;;;;;;;;;16.90;61.10;;;;;;5036705;28;19995;-67
2023/04/14 11:32:52;;;;;;;;;;;16.60;60.80;;;;;;5054720;28;19909;-65
2023/04/14 11:35:18;;;;;;;;;;;16.50;61.90;;;;;;5054804;28;19943;-65
2023/04/14 11:37:44;;;;;;;;;;;16.40;61.60;;;;;;5054704;28;19904;-65
2023/04/14 11:40:11;;;;;;;;;;;16.30;60.60;;;;;;5054961;28;20007;-66
2023/04/14 11:42:37;;;;;;;;;;;16.10;61.40;;;;;;5054737;28;19911;-66
2023/04/14 11:45:06;;;;;;;;;;;16.00;62.50;;;;;;5054073;28;20288;-67
2023/04/14 11:47:31;;;;;;;;;;;15.90;60.60;;;;;;5055093;28;19958;-67
2023/04/14 11:50:00;;;;;;;;;;;15.80;61.20;;;;;;5054893;28;19905;-67
2023/04/14 11:52:25;;;;;;;;;;;16.00;61.50;;;;;;5054344;28;20098;-67
2023/04/14 11:54:51;;;;;;;;;;;16.20;61.60;;;;;;5054398;28;20314;-66
2023/04/14 11:57:17;;;;;;;;;;;16.30;60.70;;;;;;5049978;28;20337;-66
2023/04/14 11:59:43;;;;;;;;;;;16.30;61.10;;;;;;5016219;28;19919;-64
2023/04/14 12:02:16;;;;;;;;;;;16.20;62.00;;;;;;5016354;28;19905;-66
2023/04/14 12:04:41;;;;;;;;;;;16.10;60.40;;;;;;5034734;28;20262;-67
2023/04/14 12:07:11;;;;;;;;;;;16.10;59.60;;;;;;5016284;28;19909;-66
2023/04/14 12:09:39;;;;;;;;;;;15.90;57.40;;;;;;5034513;28;19913;-65
2023/04/14 12:12:12;;;;;;;;;;;16.10;59.30;;;;;;5016611;28;19951;-65
2023/04/14 12:14:38;;;;;;;;;;;15.70;58.50;;;;;;5038157;28;19962;-65
2023/04/14 12:17:04;;;;;;;;;;;15.50;59.70;;;;;;5053827;28;20353;-68
2023/04/14 12:19:30;;;;;;;;;;;15.60;60.50;;;;;;5054345;28;19905;-66
2023/04/14 12:21:56;;;;;;;;;;;15.70;60.20;;;;;;5054268;28;20038;-67
2023/04/14 12:24:22;;;;;;;;;;;15.60;59.90;;;;;;5054233;28;19909;-66
2023/04/14 12:26:47;;;;;;;;;;;15.70;60.20;;;;;;5054093;28;19916;-67
2023/04/14 12:29:13;;;;;;;;;;;15.60;61.20;;;;;;5052058;28;20268;-66
2023/04/14 12:31:43;;;;;;;;;;;15.70;60.80;;;;;;5028191;28;19905;-66
2023/04/14 12:34:13;;;;;;;;;;;15.60;59.90;;;;;;5034144;28;19995;-67
2023/04/14 12:36:39;;;;;;;;;;;15.50;60.90;;;;;;5034230;28;19909;-66
2023/04/14 12:39:05;;;;;;;;;;;15.30;60.90;;;;;;5033984;28;19955;-65
2023/04/14 12:41:30;;;;;;;;;;;15.40;59.80;;;;;;5034091;28;20349;-66
2023/04/14 12:43:56;;;;;;;;;;;15.20;60.50;;;;;;5034303;28;19955;-66
2023/04/14 12:46:22;;;;;;;;;;;15.20;58.90;;;;;;5051579;28;20262;-66
2023/04/14 12:48:48;;;;;;;;;;;15.30;59.60;;;;;;5053864;28;19909;-65
2023/04/14 12:51:14;;;;;;;;;;;15.60;59.90;;;;;;5037756;28;19909;-66
2023/04/14 12:53:41;;;;;;;;;;;15.50;60.90;;;;;;5035279;28;19909;-67
2023/04/14 12:56:06;;;;;;;;;;;15.50;60.80;;;;;;5036948;28;19905;-65
2023/04/14 12:58:33;;;;;;;;;;;15.60;60.30;;;;;;5037181;28;19972;-66
2023/04/14 13:00:58;;;;;;;;;;;15.40;60.20;;;;;;5020136;28;20269;-65
2023/04/14 13:03:24;;;;;;;;;;;15.50;60.80;;;;;;5022494;28;19976;-66
2023/04/14 13:05:50;;;;;;;;;;;15.70;61.40;;;;;;5039340;28;19905;-66
2023/04/14 13:08:15;;;;;;;;;;;16.00;61.50;;;;;;5016428;28;19956;-64
2023/04/14 13:10:41;;;;;;;;;;;16.20;60.70;;;;;;5033998;28;19912;-66
2023/04/14 13:13:06;;;;;;;;;;;16.30;60.70;;;;;;5016134;28;19913;-66
2023/04/14 13:15:31;;;;;;;;;;;16.50;60.10;;;;;;5044466;28;19912;-66
2023/04/14 13:17:57;;;;;;;;;;;16.00;59.70;;;;;;5054889;28;19954;-66
2023/04/14 13:20:22;;;;;;;;;;;15.90;59.40;;;;;;5058425;28;19955;-65
2023/04/14 13:22:48;;;;;;;;;;;15.90;59.60;;;;;;5058904;28;19912;-65
2023/04/14 13:25:13;;;;;;;;;;;15.90;59.80;;;;;;5058575;28;19905;-66
2023/04/14 13:27:39;;;;;;;;;;;16.10;60.60;;;;;;5060567;28;19905;-66
2023/04/14 13:30:05;;;;;;;;;;;16.30;59.60;;;;;;5058169;28;20003;-64
2023/04/14 13:32:30;;;;;;;;;;;16.30;59.50;;;;;;5058203;28;19909;-64
2023/04/14 13:34:56;;;;;;;;;;;15.70;59.20;;;;;;5040284;28;19908;-64
2023/04/14 13:37:21;;;;;;;;;;;15.80;60.20;;;;;;5058121;28;19904;-64
2023/04/14 13:39:46;;;;;;;;;;;15.70;59.20;;;;;;5059580;28;20387;-65
2023/04/14 13:42:13;;;;;;;;;;;15.80;59.40;;;;;;5042811;28;19927;-64
2023/04/14 13:44:39;;;;;;;;;;;16.10;59.50;;;;;;5059987;28;20357;-63
2023/04/14 13:47:04;;;;;;;;;;;16.00;58.50;;;;;;5056628;28;19905;-64
2023/04/14 13:49:30;;;;;;;;;;;16.00;57.30;;;;;;5056662;28;19905;-64
2023/04/14 13:51:56;;;;;;;;;;;15.90;57.10;;;;;;5056728;28;19970;-64
2023/04/14 13:54:21;;;;;;;;;;;15.90;56.20;;;;;;5056453;28;19935;-64
2023/04/14 13:56:46;;;;;;;;;;;15.80;57.30;;;;;;5056948;28;19920;-62
2023/04/14 13:59:15;;;;;;;;;;;16.00;57.50;;;;;;5038582;28;19959;-64
2023/04/14 14:01:40;;;;;;;;;;;16.00;55.90;;;;;;5056085;28;19904;-64
2023/04/14 14:04:06;;;;;;;;;;;16.00;55.70;;;;;;5056458;28;19916;-63
2023/04/14 14:06:31;;;;;;;;;;;16.10;55.70;;;;;;5057124;28;19948;-69
2023/04/14 14:09:03;;;;;;;;;;;16.20;55.90;;;;;;5056671;28;19905;-68
2023/04/14 14:11:29;;;;;;;;;;;16.30;56.90;;;;;;5056505;28;20420;-63
2023/04/14 14:13:54;;;;;;;;;;;16.70;55.10;;;;;;5056621;28;19966;-63
2023/04/14 14:16:21;;;;;;;;;;;16.70;54.70;;;;;;5060503;22;19925;-68
2023/04/14 14:18:47;;;;;;;;;;;16.80;54.00;;;;;;5037325;28;19912;-67
2023/04/14 14:21:12;;;;;;;;;;;16.70;53.30;;;;;;5036800;28;19916;-69